sensor_id;sensor_type;location;lat;lon;timestamp;pressure;altitude;pressure_sealevel;temperature
12918;BMP180;6526;54.312;13.092;2024-01-25T00:00:46;101229.00;;;11.10
12918;BMP180;6526;54.312;13.092;2024-01-25T00:03:12;101186.00;;;11.10
12918;BMP180;6526;54.312;13.092;2024-01-25T00:05:38;101231.00;;;11.10
12918;BMP180;6526;54.312;13.092;2024-01-25T00:08:04;101212.00;;;11.10
12918;BMP180;6526;54.312;13.092;2024-01-25T00:10:30;101228.00;;;11.10
12918;BMP180;6526;54.312;13.092;2024-01-25T00:12:56;101224.00;;;11.10
12918;BMP180;6526;54.312;13.092;2024-01-25T00:15:22;101217.00;;;11.10
12918;BMP180;6526;54.312;13.092;2024-01-25T00:17:48;101213.00;;;11.20
12918;BMP180;6526;54.312;13.092;2024-01-25T00:20:14;101251.00;;;11.10
12918;BMP180;6526;54.312;13.092;2024-01-25T00:22:40;101220.00;;;11.10
12918;BMP180;6526;54.312;13.092;2024-01-25T00:25:07;101236.00;;;11.10
12918;BMP180;6526;54.312;13.092;2024-01-25T00:27:33;101232.00;;;11.20
12918;BMP180;6526;54.312;13.092;2024-01-25T00:29:59;101217.00;;;11.20
12918;BMP180;6526;54.312;13.092;2024-01-25T00:32:26;101222.00;;;11.20
12918;BMP180;6526;54.312;13.092;2024-01-25T00:34:52;101243.00;;;11.20
12918;BMP180;6526;54.312;13.092;2024-01-25T00:37:18;101249.00;;;11.10
12918;BMP180;6526;54.312;13.092;2024-01-25T00:39:44;101216.00;;;11.20
12918;BMP180;6526;54.312;13.092;2024-01-25T00:42:13;101240.00;;;11.20
12918;BMP180;6526;54.312;13.092;2024-01-25T00:44:40;101302.00;;;11.20
12918;BMP180;6526;54.312;13.092;2024-01-25T00:47:07;101276.00;;;11.20
12918;BMP180;6526;54.312;13.092;2024-01-25T00:49:33;101271.00;;;11.20
12918;BMP180;6526;54.312;13.092;2024-01-25T00:52:00;101250.00;;;11.20
12918;BMP180;6526;54.312;13.092;2024-01-25T00:54:28;101236.00;;;11.20
12918;BMP180;6526;54.312;13.092;2024-01-25T00:56:54;101250.00;;;11.20
12918;BMP180;6526;54.312;13.092;2024-01-25T00:59:21;101267.00;;;11.20
12918;BMP180;6526;54.312;13.092;2024-01-25T01:01:47;101259.00;;;11.20
12918;BMP180;6526;54.312;13.092;2024-01-25T01:04:20;101265.00;;;11.10
12918;BMP180;6526;54.312;13.092;2024-01-25T01:06:46;101276.00;;;11.20
12918;BMP180;6526;54.312;13.092;2024-01-25T01:09:13;101255.00;;;11.10
12918;BMP180;6526;54.312;13.092;2024-01-25T01:11:39;101278.00;;;11.20
12918;BMP180;6526;54.312;13.092;2024-01-25T01:14:05;101283.00;;;11.20
12918;BMP180;6526;54.312;13.092;2024-01-25T01:16:31;101273.00;;;11.10
12918;BMP180;6526;54.312;13.092;2024-01-25T01:18:59;101271.00;;;11.10
12918;BMP180;6526;54.312;13.092;2024-01-25T01:21:35;101267.00;;;11.10
12918;BMP180;6526;54.312;13.092;2024-01-25T01:24:02;101285.00;;;11.10
12918;BMP180;6526;54.312;13.092;2024-01-25T01:26:28;101276.00;;;11.10
12918;BMP180;6526;54.312;13.092;2024-01-25T01:28:54;101244.00;;;11.10
12918;BMP180;6526;54.312;13.092;2024-01-25T01:31:20;101304.00;;;11.20
12918;BMP180;6526;54.312;13.092;2024-01-25T01:33:46;101277.00;;;11.10
12918;BMP180;6526;54.312;13.092;2024-01-25T01:36:12;101303.00;;;11.20
12918;BMP180;6526;54.312;13.092;2024-01-25T01:38:38;101312.00;;;11.10
12918;BMP180;6526;54.312;13.092;2024-01-25T01:41:04;101301.00;;;11.20
12918;BMP180;6526;54.312;13.092;2024-01-25T01:43:30;101321.00;;;11.10
12918;BMP180;6526;54.312;13.092;2024-01-25T01:46:01;101298.00;;;11.20
12918;BMP180;6526;54.312;13.092;2024-01-25T01:48:30;101304.00;;;11.20
12918;BMP180;6526;54.312;13.092;2024-01-25T01:50:56;101316.00;;;11.20
12918;BMP180;6526;54.312;13.092;2024-01-25T01:53:22;101328.00;;;11.20
12918;BMP180;6526;54.312;13.092;2024-01-25T01:55:48;101311.00;;;11.30
12918;BMP180;6526;54.312;13.092;2024-01-25T01:58:14;101329.00;;;11.40
12918;BMP180;6526;54.312;13.092;2024-01-25T02:00:41;101318.00;;;11.50
12918;BMP180;6526;54.312;13.092;2024-01-25T02:03:08;101330.00;;;11.40
12918;BMP180;6526;54.312;13.092;2024-01-25T02:05:34;101322.00;;;11.40
12918;BMP180;6526;54.312;13.092;2024-01-25T02:08:00;101336.00;;;11.40
12918;BMP180;6526;54.312;13.092;2024-01-25T02:10:26;101334.00;;;11.40
12918;BMP180;6526;54.312;13.092;2024-01-25T02:12:52;101332.00;;;11.20
12918;BMP180;6526;54.312;13.092;2024-01-25T02:15:18;101355.00;;;11.20
12918;BMP180;6526;54.312;13.092;2024-01-25T02:17:44;101361.00;;;11.10
12918;BMP180;6526;54.312;13.092;2024-01-25T02:20:10;101352.00;;;11.20
12918;BMP180;6526;54.312;13.092;2024-01-25T02:22:36;101369.00;;;11.10
12918;BMP180;6526;54.312;13.092;2024-01-25T02:25:03;101357.00;;;11.10
12918;BMP180;6526;54.312;13.092;2024-01-25T02:27:29;101357.00;;;11.10
12918;BMP180;6526;54.312;13.092;2024-01-25T02:29:55;101331.00;;;11.10
12918;BMP180;6526;54.312;13.092;2024-01-25T02:32:21;101364.00;;;11.10
12918;BMP180;6526;54.312;13.092;2024-01-25T02:34:47;101349.00;;;11.00
12918;BMP180;6526;54.312;13.092;2024-01-25T02:37:13;101365.00;;;11.00
12918;BMP180;6526;54.312;13.092;2024-01-25T02:39:40;101350.00;;;11.00
12918;BMP180;6526;54.312;13.092;2024-01-25T02:42:06;101368.00;;;10.90
12918;BMP180;6526;54.312;13.092;2024-01-25T02:44:32;101364.00;;;10.90
12918;BMP180;6526;54.312;13.092;2024-01-25T02:46:58;101368.00;;;10.90
12918;BMP180;6526;54.312;13.092;2024-01-25T02:49:24;101367.00;;;10.80
12918;BMP180;6526;54.312;13.092;2024-01-25T02:51:50;101368.00;;;10.80
12918;BMP180;6526;54.312;13.092;2024-01-25T02:54:16;101372.00;;;10.70
12918;BMP180;6526;54.312;13.092;2024-01-25T02:56:42;101393.00;;;10.70
12918;BMP180;6526;54.312;13.092;2024-01-25T02:59:09;101388.00;;;10.70
12918;BMP180;6526;54.312;13.092;2024-01-25T03:01:40;101376.00;;;10.70
12918;BMP180;6526;54.312;13.092;2024-01-25T03:04:06;101404.00;;;10.60
12918;BMP180;6526;54.312;13.092;2024-01-25T03:06:32;101404.00;;;10.60
12918;BMP180;6526;54.312;13.092;2024-01-25T03:08:58;101412.00;;;10.60
12918;BMP180;6526;54.312;13.092;2024-01-25T03:11:24;101444.00;;;10.60
12918;BMP180;6526;54.312;13.092;2024-01-25T03:13:50;101457.00;;;10.50
12918;BMP180;6526;54.312;13.092;2024-01-25T03:16:16;101453.00;;;10.50
12918;BMP180;6526;54.312;13.092;2024-01-25T03:18:42;101469.00;;;10.60
12918;BMP180;6526;54.312;13.092;2024-01-25T03:21:08;101477.00;;;10.60
12918;BMP180;6526;54.312;13.092;2024-01-25T03:23:34;101479.00;;;10.60
12918;BMP180;6526;54.312;13.092;2024-01-25T03:26:02;101481.00;;;10.70
12918;BMP180;6526;54.312;13.092;2024-01-25T03:28:28;101473.00;;;10.70
12918;BMP180;6526;54.312;13.092;2024-01-25T03:30:54;101491.00;;;10.60
12918;BMP180;6526;54.312;13.092;2024-01-25T03:33:20;101476.00;;;10.60
12918;BMP180;6526;54.312;13.092;2024-01-25T03:35:46;101498.00;;;10.60
12918;BMP180;6526;54.312;13.092;2024-01-25T03:38:12;101495.00;;;10.60
12918;BMP180;6526;54.312;13.092;2024-01-25T03:40:39;101524.00;;;10.60
12918;BMP180;6526;54.312;13.092;2024-01-25T03:43:05;101510.00;;;10.60
12918;BMP180;6526;54.312;13.092;2024-01-25T03:45:31;101517.00;;;10.60
12918;BMP180;6526;54.312;13.092;2024-01-25T03:47:58;101530.00;;;10.60
12918;BMP180;6526;54.312;13.092;2024-01-25T03:50:24;101485.00;;;10.60
12918;BMP180;6526;54.312;13.092;2024-01-25T03:52:50;101527.00;;;10.50
12918;BMP180;6526;54.312;13.092;2024-01-25T03:55:16;101524.00;;;10.60
12918;BMP180;6526;54.312;13.092;2024-01-25T03:57:43;101498.00;;;10.60
12918;BMP180;6526;54.312;13.092;2024-01-25T04:00:10;101518.00;;;10.60
12918;BMP180;6526;54.312;13.092;2024-01-25T04:02:37;101543.00;;;10.60
12918;BMP180;6526;54.312;13.092;2024-01-25T04:05:04;101545.00;;;10.70
12918;BMP180;6526;54.312;13.092;2024-01-25T04:07:30;101549.00;;;10.60
12918;BMP180;6526;54.312;13.092;2024-01-25T04:09:56;101553.00;;;10.60
12918;BMP180;6526;54.312;13.092;2024-01-25T04:12:22;101542.00;;;10.60
12918;BMP180;6526;54.312;13.092;2024-01-25T04:14:49;101550.00;;;10.60
12918;BMP180;6526;54.312;13.092;2024-01-25T04:17:15;101571.00;;;10.60
12918;BMP180;6526;54.312;13.092;2024-01-25T04:19:41;101573.00;;;10.60
12918;BMP180;6526;54.312;13.092;2024-01-25T04:22:07;101562.00;;;10.50
12918;BMP180;6526;54.312;13.092;2024-01-25T04:24:33;101581.00;;;10.50
12918;BMP180;6526;54.312;13.092;2024-01-25T04:26:59;101586.00;;;10.50
12918;BMP180;6526;54.312;13.092;2024-01-25T04:29:25;101589.00;;;10.50
12918;BMP180;6526;54.312;13.092;2024-01-25T04:31:51;101588.00;;;10.50
12918;BMP180;6526;54.312;13.092;2024-01-25T04:34:17;101609.00;;;10.50
12918;BMP180;6526;54.312;13.092;2024-01-25T04:36:43;101601.00;;;10.50
12918;BMP180;6526;54.312;13.092;2024-01-25T04:39:09;101613.00;;;10.60
12918;BMP180;6526;54.312;13.092;2024-01-25T04:41:36;101616.00;;;10.50
12918;BMP180;6526;54.312;13.092;2024-01-25T04:44:03;101598.00;;;10.50
12918;BMP180;6526;54.312;13.092;2024-01-25T04:46:29;101604.00;;;10.50
12918;BMP180;6526;54.312;13.092;2024-01-25T04:49:00;101624.00;;;10.50
12918;BMP180;6526;54.312;13.092;2024-01-25T04:51:27;101625.00;;;10.40
12918;BMP180;6526;54.312;13.092;2024-01-25T04:53:53;101625.00;;;10.40
12918;BMP180;6526;54.312;13.092;2024-01-25T04:56:19;101645.00;;;10.40
12918;BMP180;6526;54.312;13.092;2024-01-25T04:58:45;101640.00;;;10.50
12918;BMP180;6526;54.312;13.092;2024-01-25T05:01:11;101638.00;;;10.50
12918;BMP180;6526;54.312;13.092;2024-01-25T05:03:37;101646.00;;;10.50
12918;BMP180;6526;54.312;13.092;2024-01-25T05:06:04;101648.00;;;10.60
12918;BMP180;6526;54.312;13.092;2024-01-25T05:08:30;101676.00;;;10.50
12918;BMP180;6526;54.312;13.092;2024-01-25T05:10:56;101683.00;;;10.50
12918;BMP180;6526;54.312;13.092;2024-01-25T05:13:22;101688.00;;;10.50
12918;BMP180;6526;54.312;13.092;2024-01-25T05:15:48;101683.00;;;10.40
12918;BMP180;6526;54.312;13.092;2024-01-25T05:18:14;101683.00;;;10.50
12918;BMP180;6526;54.312;13.092;2024-01-25T05:20:40;101697.00;;;10.40
12918;BMP180;6526;54.312;13.092;2024-01-25T05:23:06;101705.00;;;10.40
12918;BMP180;6526;54.312;13.092;2024-01-25T05:25:33;101696.00;;;10.50
12918;BMP180;6526;54.312;13.092;2024-01-25T05:27:59;101695.00;;;10.40
12918;BMP180;6526;54.312;13.092;2024-01-25T05:30:25;101713.00;;;10.40
12918;BMP180;6526;54.312;13.092;2024-01-25T05:32:51;101713.00;;;10.40
12918;BMP180;6526;54.312;13.092;2024-01-25T05:35:19;101718.00;;;10.40
12918;BMP180;6526;54.312;13.092;2024-01-25T05:37:45;101727.00;;;10.40
12918;BMP180;6526;54.312;13.092;2024-01-25T05:40:12;101719.00;;;10.40
12918;BMP180;6526;54.312;13.092;2024-01-25T05:42:38;101717.00;;;10.40
12918;BMP180;6526;54.312;13.092;2024-01-25T05:45:05;101723.00;;;10.40
12918;BMP180;6526;54.312;13.092;2024-01-25T05:47:31;101722.00;;;10.40
12918;BMP180;6526;54.312;13.092;2024-01-25T05:49:57;101719.00;;;10.40
12918;BMP180;6526;54.312;13.092;2024-01-25T05:52:25;101721.00;;;10.40
12918;BMP180;6526;54.312;13.092;2024-01-25T05:54:51;101733.00;;;10.40
12918;BMP180;6526;54.312;13.092;2024-01-25T05:57:17;101733.00;;;10.30
12918;BMP180;6526;54.312;13.092;2024-01-25T05:59:44;101750.00;;;10.30
12918;BMP180;6526;54.312;13.092;2024-01-25T06:02:10;101763.00;;;10.20
12918;BMP180;6526;54.312;13.092;2024-01-25T06:04:36;101751.00;;;10.20
12918;BMP180;6526;54.312;13.092;2024-01-25T06:07:03;101760.00;;;10.20
12918;BMP180;6526;54.312;13.092;2024-01-25T06:09:29;101754.00;;;10.20
12918;BMP180;6526;54.312;13.092;2024-01-25T06:11:55;101765.00;;;10.30
12918;BMP180;6526;54.312;13.092;2024-01-25T06:14:21;101771.00;;;10.20
12918;BMP180;6526;54.312;13.092;2024-01-25T06:16:47;101774.00;;;10.20
12918;BMP180;6526;54.312;13.092;2024-01-25T06:19:13;101774.00;;;10.20
12918;BMP180;6526;54.312;13.092;2024-01-25T06:21:39;101777.00;;;10.10
12918;BMP180;6526;54.312;13.092;2024-01-25T06:24:06;101777.00;;;10.20
12918;BMP180;6526;54.312;13.092;2024-01-25T06:26:32;101795.00;;;10.20
12918;BMP180;6526;54.312;13.092;2024-01-25T06:28:58;101771.00;;;10.10
12918;BMP180;6526;54.312;13.092;2024-01-25T06:31:25;101786.00;;;10.10
12918;BMP180;6526;54.312;13.092;2024-01-25T06:33:51;101781.00;;;10.10
12918;BMP180;6526;54.312;13.092;2024-01-25T06:36:21;101777.00;;;10.20
12918;BMP180;6526;54.312;13.092;2024-01-25T06:38:48;101793.00;;;10.20
12918;BMP180;6526;54.312;13.092;2024-01-25T06:41:14;101783.00;;;10.20
12918;BMP180;6526;54.312;13.092;2024-01-25T06:43:42;101800.00;;;10.20
12918;BMP180;6526;54.312;13.092;2024-01-25T06:46:08;101796.00;;;10.20
12918;BMP180;6526;54.312;13.092;2024-01-25T06:48:34;101799.00;;;10.20
12918;BMP180;6526;54.312;13.092;2024-01-25T06:51:00;101808.00;;;10.20
12918;BMP180;6526;54.312;13.092;2024-01-25T06:53:27;101819.00;;;10.20
12918;BMP180;6526;54.312;13.092;2024-01-25T06:55:53;101823.00;;;10.10
12918;BMP180;6526;54.312;13.092;2024-01-25T06:58:19;101834.00;;;10.10
12918;BMP180;6526;54.312;13.092;2024-01-25T07:00:45;101845.00;;;10.10
12918;BMP180;6526;54.312;13.092;2024-01-25T07:03:12;101855.00;;;10.10
12918;BMP180;6526;54.312;13.092;2024-01-25T07:05:38;101841.00;;;10.10
12918;BMP180;6526;54.312;13.092;2024-01-25T07:08:05;101827.00;;;10.20
12918;BMP180;6526;54.312;13.092;2024-01-25T07:10:31;101844.00;;;10.10
12918;BMP180;6526;54.312;13.092;2024-01-25T07:12:57;101838.00;;;10.10
12918;BMP180;6526;54.312;13.092;2024-01-25T07:15:23;101850.00;;;10.10
12918;BMP180;6526;54.312;13.092;2024-01-25T07:17:49;101843.00;;;10.00
12918;BMP180;6526;54.312;13.092;2024-01-25T07:20:15;101857.00;;;10.00
12918;BMP180;6526;54.312;13.092;2024-01-25T07:22:42;101861.00;;;10.00
12918;BMP180;6526;54.312;13.092;2024-01-25T07:25:08;101861.00;;;9.90
12918;BMP180;6526;54.312;13.092;2024-01-25T07:27:34;101876.00;;;10.00
12918;BMP180;6526;54.312;13.092;2024-01-25T07:30:00;101881.00;;;9.90
12918;BMP180;6526;54.312;13.092;2024-01-25T07:32:26;101873.00;;;9.90
12918;BMP180;6526;54.312;13.092;2024-01-25T07:34:52;101874.00;;;9.90
12918;BMP180;6526;54.312;13.092;2024-01-25T07:37:19;101881.00;;;10.00
12918;BMP180;6526;54.312;13.092;2024-01-25T07:39:45;101893.00;;;10.00
12918;BMP180;6526;54.312;13.092;2024-01-25T07:42:12;101887.00;;;9.90
12918;BMP180;6526;54.312;13.092;2024-01-25T07:44:38;101905.00;;;9.90
12918;BMP180;6526;54.312;13.092;2024-01-25T07:47:04;101918.00;;;9.90
12918;BMP180;6526;54.312;13.092;2024-01-25T07:49:30;101911.00;;;9.90
12918;BMP180;6526;54.312;13.092;2024-01-25T07:51:56;101929.00;;;9.90
12918;BMP180;6526;54.312;13.092;2024-01-25T07:54:23;101935.00;;;9.80
12918;BMP180;6526;54.312;13.092;2024-01-25T07:56:49;101931.00;;;9.80
12918;BMP180;6526;54.312;13.092;2024-01-25T07:59:15;101941.00;;;9.80
12918;BMP180;6526;54.312;13.092;2024-01-25T08:01:41;101926.00;;;9.90
12918;BMP180;6526;54.312;13.092;2024-01-25T08:04:07;101942.00;;;9.90
12918;BMP180;6526;54.312;13.092;2024-01-25T08:06:33;101951.00;;;10.00
12918;BMP180;6526;54.312;13.092;2024-01-25T08:08:59;101955.00;;;10.00
12918;BMP180;6526;54.312;13.092;2024-01-25T08:11:26;101953.00;;;10.00
12918;BMP180;6526;54.312;13.092;2024-01-25T08:13:52;101954.00;;;10.00
12918;BMP180;6526;54.312;13.092;2024-01-25T08:16:18;101974.00;;;10.10
12918;BMP180;6526;54.312;13.092;2024-01-25T08:18:46;101954.00;;;10.20
12918;BMP180;6526;54.312;13.092;2024-01-25T08:21:13;101964.00;;;10.10
12918;BMP180;6526;54.312;13.092;2024-01-25T08:23:39;101958.00;;;10.10
12918;BMP180;6526;54.312;13.092;2024-01-25T08:26:08;101991.00;;;10.10
12918;BMP180;6526;54.312;13.092;2024-01-25T08:28:35;101985.00;;;10.20
12918;BMP180;6526;54.312;13.092;2024-01-25T08:31:02;101986.00;;;10.20
12918;BMP180;6526;54.312;13.092;2024-01-25T08:33:28;101990.00;;;10.30
12918;BMP180;6526;54.312;13.092;2024-01-25T08:35:54;101984.00;;;10.40
12918;BMP180;6526;54.312;13.092;2024-01-25T08:38:20;102007.00;;;10.40
12918;BMP180;6526;54.312;13.092;2024-01-25T08:40:46;102012.00;;;10.40
12918;BMP180;6526;54.312;13.092;2024-01-25T08:43:12;102013.00;;;10.30
12918;BMP180;6526;54.312;13.092;2024-01-25T08:45:38;102020.00;;;10.40
12918;BMP180;6526;54.312;13.092;2024-01-25T08:48:05;102016.00;;;10.40
12918;BMP180;6526;54.312;13.092;2024-01-25T08:50:31;102011.00;;;10.40
12918;BMP180;6526;54.312;13.092;2024-01-25T08:52:59;102025.00;;;10.50
12918;BMP180;6526;54.312;13.092;2024-01-25T08:55:25;102032.00;;;10.50
12918;BMP180;6526;54.312;13.092;2024-01-25T08:57:51;102027.00;;;10.50
12918;BMP180;6526;54.312;13.092;2024-01-25T09:00:17;102037.00;;;10.50
12918;BMP180;6526;54.312;13.092;2024-01-25T09:02:44;102050.00;;;10.60
12918;BMP180;6526;54.312;13.092;2024-01-25T09:05:10;102055.00;;;10.60
12918;BMP180;6526;54.312;13.092;2024-01-25T09:07:37;102055.00;;;10.60
12918;BMP180;6526;54.312;13.092;2024-01-25T09:10:04;102061.00;;;10.60
12918;BMP180;6526;54.312;13.092;2024-01-25T09:12:30;102081.00;;;10.70
12918;BMP180;6526;54.312;13.092;2024-01-25T09:14:56;102077.00;;;10.70
12918;BMP180;6526;54.312;13.092;2024-01-25T09:17:22;102093.00;;;10.70
12918;BMP180;6526;54.312;13.092;2024-01-25T09:19:49;102098.00;;;10.70
12918;BMP180;6526;54.312;13.092;2024-01-25T09:22:19;102095.00;;;10.80
12918;BMP180;6526;54.312;13.092;2024-01-25T09:24:46;102119.00;;;10.80
12918;BMP180;6526;54.312;13.092;2024-01-25T09:27:12;102107.00;;;10.80
12918;BMP180;6526;54.312;13.092;2024-01-25T09:29:41;102106.00;;;10.90
12918;BMP180;6526;54.312;13.092;2024-01-25T09:32:08;102117.00;;;10.90
12918;BMP180;6526;54.312;13.092;2024-01-25T09:34:36;102127.00;;;11.00
12918;BMP180;6526;54.312;13.092;2024-01-25T09:37:02;102126.00;;;11.00
12918;BMP180;6526;54.312;13.092;2024-01-25T09:39:28;102117.00;;;11.00
12918;BMP180;6526;54.312;13.092;2024-01-25T09:41:54;102122.00;;;11.10
12918;BMP180;6526;54.312;13.092;2024-01-25T09:44:20;102119.00;;;11.10
12918;BMP180;6526;54.312;13.092;2024-01-25T09:46:46;102133.00;;;11.20
12918;BMP180;6526;54.312;13.092;2024-01-25T09:49:12;102143.00;;;11.30
12918;BMP180;6526;54.312;13.092;2024-01-25T09:51:41;102137.00;;;11.30
12918;BMP180;6526;54.312;13.092;2024-01-25T09:54:07;102138.00;;;11.20
12918;BMP180;6526;54.312;13.092;2024-01-25T09:56:34;102149.00;;;11.20
12918;BMP180;6526;54.312;13.092;2024-01-25T09:59:01;102140.00;;;11.30
12918;BMP180;6526;54.312;13.092;2024-01-25T10:01:28;102163.00;;;11.30
12918;BMP180;6526;54.312;13.092;2024-01-25T10:03:54;102159.00;;;11.30
12918;BMP180;6526;54.312;13.092;2024-01-25T10:06:22;102175.00;;;11.30
12918;BMP180;6526;54.312;13.092;2024-01-25T10:08:48;102166.00;;;11.40
12918;BMP180;6526;54.312;13.092;2024-01-25T10:11:15;102175.00;;;11.40
12918;BMP180;6526;54.312;13.092;2024-01-25T10:13:46;102175.00;;;11.50
12918;BMP180;6526;54.312;13.092;2024-01-25T10:16:18;102187.00;;;11.50
12918;BMP180;6526;54.312;13.092;2024-01-25T10:18:46;102159.00;;;11.50
12918;BMP180;6526;54.312;13.092;2024-01-25T10:21:14;102176.00;;;11.50
12918;BMP180;6526;54.312;13.092;2024-01-25T10:23:41;102172.00;;;11.50
12918;BMP180;6526;54.312;13.092;2024-01-25T10:26:09;102181.00;;;11.60
12918;BMP180;6526;54.312;13.092;2024-01-25T10:28:35;102184.00;;;11.60
12918;BMP180;6526;54.312;13.092;2024-01-25T10:31:03;102188.00;;;11.70
12918;BMP180;6526;54.312;13.092;2024-01-25T10:33:34;102195.00;;;11.70
12918;BMP180;6526;54.312;13.092;2024-01-25T10:36:01;102209.00;;;11.90
12918;BMP180;6526;54.312;13.092;2024-01-25T10:38:31;102209.00;;;12.00
12918;BMP180;6526;54.312;13.092;2024-01-25T10:41:00;102216.00;;;12.10
12918;BMP180;6526;54.312;13.092;2024-01-25T10:43:27;102193.00;;;12.00
12918;BMP180;6526;54.312;13.092;2024-01-25T10:45:54;102208.00;;;12.10
12918;BMP180;6526;54.312;13.092;2024-01-25T10:48:27;102224.00;;;12.30
12918;BMP180;6526;54.312;13.092;2024-01-25T10:50:56;102215.00;;;12.20
12918;BMP180;6526;54.312;13.092;2024-01-25T10:53:25;102215.00;;;12.30
12918;BMP180;6526;54.312;13.092;2024-01-25T10:55:52;102232.00;;;12.30
12918;BMP180;6526;54.312;13.092;2024-01-25T10:58:19;102238.00;;;12.30
12918;BMP180;6526;54.312;13.092;2024-01-25T11:00:55;102244.00;;;12.30
12918;BMP180;6526;54.312;13.092;2024-01-25T11:03:30;102254.00;;;12.30
12918;BMP180;6526;54.312;13.092;2024-01-25T11:06:11;102267.00;;;12.30
12918;BMP180;6526;54.312;13.092;2024-01-25T11:08:38;102262.00;;;12.30
12918;BMP180;6526;54.312;13.092;2024-01-25T11:11:08;102252.00;;;12.30
12918;BMP180;6526;54.312;13.092;2024-01-25T11:13:35;102261.00;;;12.30
12918;BMP180;6526;54.312;13.092;2024-01-25T11:16:15;102251.00;;;12.40
12918;BMP180;6526;54.312;13.092;2024-01-25T11:18:52;102263.00;;;12.40
12918;BMP180;6526;54.312;13.092;2024-01-25T11:21:44;102256.00;;;12.40
12918;BMP180;6526;54.312;13.092;2024-01-25T11:24:19;102257.00;;;12.40
12918;BMP180;6526;54.312;13.092;2024-01-25T11:26:47;102258.00;;;12.40
12918;BMP180;6526;54.312;13.092;2024-01-25T11:29:16;102265.00;;;12.30
12918;BMP180;6526;54.312;13.092;2024-01-25T11:31:44;102282.00;;;12.40
12918;BMP180;6526;54.312;13.092;2024-01-25T11:34:11;102282.00;;;12.40
12918;BMP180;6526;54.312;13.092;2024-01-25T11:36:38;102289.00;;;12.40
12918;BMP180;6526;54.312;13.092;2024-01-25T11:39:04;102287.00;;;12.40
12918;BMP180;6526;54.312;13.092;2024-01-25T11:41:32;102291.00;;;12.40
12918;BMP180;6526;54.312;13.092;2024-01-25T11:43:58;102278.00;;;12.40
12918;BMP180;6526;54.312;13.092;2024-01-25T11:46:25;102301.00;;;12.30
12918;BMP180;6526;54.312;13.092;2024-01-25T11:48:52;102306.00;;;12.30
12918;BMP180;6526;54.312;13.092;2024-01-25T11:51:18;102304.00;;;12.30
12918;BMP180;6526;54.312;13.092;2024-01-25T11:53:44;102314.00;;;12.30
12918;BMP180;6526;54.312;13.092;2024-01-25T11:56:14;102315.00;;;12.20
12918;BMP180;6526;54.312;13.092;2024-01-25T11:58:43;102318.00;;;12.20
12918;BMP180;6526;54.312;13.092;2024-01-25T12:01:10;102320.00;;;12.30
12918;BMP180;6526;54.312;13.092;2024-01-25T12:03:37;102313.00;;;12.40
12918;BMP180;6526;54.312;13.092;2024-01-25T12:06:04;102319.00;;;12.40
12918;BMP180;6526;54.312;13.092;2024-01-25T12:08:33;102315.00;;;12.40
12918;BMP180;6526;54.312;13.092;2024-01-25T12:11:07;102318.00;;;12.40
12918;BMP180;6526;54.312;13.092;2024-01-25T12:13:41;102306.00;;;12.40
12918;BMP180;6526;54.312;13.092;2024-01-25T12:16:08;102312.00;;;12.40
12918;BMP180;6526;54.312;13.092;2024-01-25T12:18:34;102310.00;;;12.40
12918;BMP180;6526;54.312;13.092;2024-01-25T12:21:05;102317.00;;;12.40
12918;BMP180;6526;54.312;13.092;2024-01-25T12:23:41;102333.00;;;12.30
12918;BMP180;6526;54.312;13.092;2024-01-25T12:26:10;102333.00;;;12.20
12918;BMP180;6526;54.312;13.092;2024-01-25T12:28:37;102335.00;;;12.10
12918;BMP180;6526;54.312;13.092;2024-01-25T12:31:05;102332.00;;;12.10
12918;BMP180;6526;54.312;13.092;2024-01-25T12:33:32;102326.00;;;12.20
12918;BMP180;6526;54.312;13.092;2024-01-25T12:35:58;102335.00;;;12.30
12918;BMP180;6526;54.312;13.092;2024-01-25T12:38:25;102340.00;;;12.30
12918;BMP180;6526;54.312;13.092;2024-01-25T12:40:52;102341.00;;;12.30
12918;BMP180;6526;54.312;13.092;2024-01-25T12:43:19;102326.00;;;12.30
12918;BMP180;6526;54.312;13.092;2024-01-25T12:45:47;102338.00;;;12.30
12918;BMP180;6526;54.312;13.092;2024-01-25T12:48:13;102357.00;;;12.20
12918;BMP180;6526;54.312;13.092;2024-01-25T12:50:39;102355.00;;;12.20
12918;BMP180;6526;54.312;13.092;2024-01-25T12:53:06;102360.00;;;12.10
12918;BMP180;6526;54.312;13.092;2024-01-25T12:55:32;102356.00;;;12.00
12918;BMP180;6526;54.312;13.092;2024-01-25T12:57:59;102358.00;;;11.80
12918;BMP180;6526;54.312;13.092;2024-01-25T13:00:25;102363.00;;;11.80
12918;BMP180;6526;54.312;13.092;2024-01-25T13:02:51;102357.00;;;11.70
12918;BMP180;6526;54.312;13.092;2024-01-25T13:05:19;102374.00;;;11.70
12918;BMP180;6526;54.312;13.092;2024-01-25T13:07:45;102366.00;;;11.70
12918;BMP180;6526;54.312;13.092;2024-01-25T13:10:11;102365.00;;;11.70
12918;BMP180;6526;54.312;13.092;2024-01-25T13:12:38;102383.00;;;11.60
12918;BMP180;6526;54.312;13.092;2024-01-25T13:15:05;102374.00;;;11.50
12918;BMP180;6526;54.312;13.092;2024-01-25T13:17:34;102385.00;;;11.50
12918;BMP180;6526;54.312;13.092;2024-01-25T13:20:00;102381.00;;;11.30
12918;BMP180;6526;54.312;13.092;2024-01-25T13:22:26;102377.00;;;11.30
12918;BMP180;6526;54.312;13.092;2024-01-25T13:24:53;102387.00;;;11.40
12918;BMP180;6526;54.312;13.092;2024-01-25T13:27:19;102393.00;;;11.40
12918;BMP180;6526;54.312;13.092;2024-01-25T13:29:45;102403.00;;;11.50
12918;BMP180;6526;54.312;13.092;2024-01-25T13:32:11;102403.00;;;11.40
12918;BMP180;6526;54.312;13.092;2024-01-25T13:34:37;102403.00;;;11.40
12918;BMP180;6526;54.312;13.092;2024-01-25T13:37:03;102407.00;;;11.30
12918;BMP180;6526;54.312;13.092;2024-01-25T13:39:29;102408.00;;;11.20
12918;BMP180;6526;54.312;13.092;2024-01-25T13:41:55;102402.00;;;11.30
12918;BMP180;6526;54.312;13.092;2024-01-25T13:44:22;102401.00;;;11.30
12918;BMP180;6526;54.312;13.092;2024-01-25T13:46:48;102405.00;;;11.20
12918;BMP180;6526;54.312;13.092;2024-01-25T13:49:14;102406.00;;;11.20
12918;BMP180;6526;54.312;13.092;2024-01-25T13:51:40;102415.00;;;11.20
12918;BMP180;6526;54.312;13.092;2024-01-25T13:54:06;102417.00;;;11.20